createdAt,value
2023-02-22T00:02:21.327Z,100097.00
2023-02-22T00:07:31.214Z,100099.20
2023-02-22T00:12:40.804Z,100114.60
2023-02-22T00:17:51.035Z,100124.60
2023-02-22T00:23:01.690Z,100118.60
2023-02-22T00:28:11.467Z,100129.00
2023-02-22T00:33:21.734Z,100140.80
2023-02-22T00:38:31.630Z,100140.20
2023-02-22T00:43:41.699Z,100143.80
2023-02-22T00:48:51.377Z,100147.00
2023-02-22T00:54:01.033Z,100164.60
2023-02-22T00:59:10.534Z,100162.80
2023-02-22T01:04:20.755Z,100170.40
2023-02-22T01:09:30.648Z,100175.00
2023-02-22T01:14:40.382Z,100171.40
2023-02-22T01:19:50.591Z,100181.00
2023-02-22T01:25:00.720Z,100185.80
2023-02-22T01:30:15.593Z,100196.20
2023-02-22T01:35:30.753Z,100206.20
2023-02-22T01:40:43.360Z,100206.80
2023-02-22T01:46:03.074Z,100213.80
2023-02-22T01:51:19.986Z,100211.20
2023-02-22T01:56:35.636Z,100215.20
2023-02-22T02:01:46.374Z,100220.40
2023-02-22T02:06:59.818Z,100220.40
2023-02-22T02:12:13.793Z,100218.80
2023-02-22T02:17:25.529Z,100221.80
2023-02-22T02:22:54.773Z,100222.60
2023-02-22T02:28:39.570Z,100220.20
2023-02-22T02:33:57.967Z,100226.60
2023-02-22T02:39:22.546Z,100232.60
2023-02-22T02:44:42.739Z,100242.40
2023-02-22T02:50:00.743Z,100239.40
2023-02-22T02:55:12.895Z,100237.00
2023-02-22T03:00:31.835Z,100249.80
2023-02-22T03:06:10.886Z,100249.20
2023-02-22T03:11:28.925Z,100259.00
2023-02-22T03:16:47.608Z,100265.40
2023-02-22T03:22:10.237Z,100263.60
2023-02-22T03:27:26.799Z,100273.40
2023-02-22T03:32:46.658Z,100277.60
2023-02-22T03:38:03.809Z,100289.20
2023-02-22T03:43:20.329Z,100291.40
2023-02-22T03:48:38.106Z,100296.00
2023-02-22T03:53:48.429Z,100299.40
2023-02-22T03:58:58.701Z,100303.60
2023-02-22T04:04:09.291Z,100304.40
2023-02-22T04:09:19.413Z,100303.00
2023-02-22T04:14:29.717Z,100311.40
2023-02-22T04:19:39.712Z,100316.40
2023-02-22T04:24:50.026Z,100319.20
2023-02-22T04:30:00.286Z,100324.60
2023-02-22T04:35:11.340Z,100331.60
2023-02-22T04:40:22.734Z,100336.40
2023-02-22T04:45:32.408Z,100335.80
2023-02-22T04:50:42.042Z,100336.80
2023-02-22T04:55:52.057Z,100343.40
2023-02-22T05:01:02.265Z,100348.40
2023-02-22T05:06:13.566Z,100342.40
2023-02-22T05:11:23.553Z,100346.60
2023-02-22T05:16:33.507Z,100348.00
2023-02-22T05:21:43.288Z,100344.60
2023-02-22T05:26:53.543Z,100352.60
2023-02-22T05:32:03.662Z,100360.40
2023-02-22T05:37:13.497Z,100364.00
2023-02-22T05:42:23.781Z,100377.40
2023-02-22T05:47:33.821Z,100387.40
2023-02-22T05:52:43.660Z,100385.60
2023-02-22T05:57:54.429Z,100381.40
2023-02-22T06:03:08.294Z,100374.40
2023-02-22T06:08:18.446Z,100377.00
2023-02-22T06:13:28.421Z,100381.80
2023-02-22T06:18:38.142Z,100377.00
2023-02-22T06:23:48.020Z,100380.40
2023-02-22T06:28:57.761Z,100382.80
2023-02-22T06:34:07.720Z,100391.00
2023-02-22T06:39:19.159Z,100396.60
2023-02-22T06:44:29.107Z,100393.80
2023-02-22T06:49:40.500Z,100410.20
2023-02-22T06:54:50.601Z,100411.00
2023-02-22T07:00:00.312Z,100419.00
2023-02-22T07:05:11.253Z,100433.60
2023-02-22T07:10:27.820Z,100437.00
2023-02-22T07:15:38.698Z,100438.80
2023-02-22T07:20:49.032Z,100449.60
2023-02-22T07:26:01.182Z,100452.80
2023-02-22T07:31:11.136Z,100466.00
2023-02-22T07:36:21.170Z,100467.60
2023-02-22T07:41:31.022Z,100468.00
2023-02-22T07:46:40.890Z,100475.40
2023-02-22T07:51:51.290Z,100476.80
2023-02-22T07:57:01.125Z,100488.20
2023-02-22T08:02:17.041Z,100485.40
2023-02-22T08:07:26.786Z,100497.60
2023-02-22T08:12:37.641Z,100493.80
2023-02-22T08:17:47.519Z,100501.60
2023-02-22T08:22:58.200Z,100507.60
2023-02-22T08:28:12.809Z,100508.00
2023-02-22T08:33:23.310Z,100516.00
2023-02-22T08:38:35.091Z,100517.20
2023-02-22T08:43:44.736Z,100518.20
2023-02-22T08:48:57.616Z,100511.60
2023-02-22T08:54:08.233Z,100521.60
2023-02-22T08:59:18.314Z,100519.20
2023-02-22T09:04:28.156Z,100524.40
2023-02-22T09:09:38.146Z,100522.20
2023-02-22T09:14:48.119Z,100531.20
2023-02-22T09:19:58.204Z,100534.00
2023-02-22T09:25:17.068Z,100540.80
2023-02-22T09:30:37.250Z,100544.00
2023-02-22T09:35:55.953Z,100550.80
2023-02-22T09:41:26.064Z,100551.60
2023-02-22T09:46:47.239Z,100550.80
2023-02-22T09:52:10.559Z,100552.00
2023-02-22T09:57:36.317Z,100550.00
2023-02-22T10:03:08.156Z,100552.20
2023-02-22T10:08:24.960Z,100559.60
2023-02-22T10:13:58.215Z,100561.40
2023-02-22T10:19:36.582Z,100566.00
2023-02-22T10:25:03.444Z,100563.00
2023-02-22T10:30:27.016Z,100566.60
2023-02-22T10:35:46.972Z,100563.40
2023-02-22T10:41:19.144Z,100569.00
2023-02-22T10:46:38.084Z,100570.00
2023-02-22T10:52:01.826Z,100561.40
2023-02-22T10:57:18.141Z,100570.80
2023-02-22T11:02:33.653Z,100572.40
2023-02-22T11:07:44.072Z,100568.00
2023-02-22T11:12:54.848Z,100570.80
2023-02-22T11:18:05.060Z,100573.20
2023-02-22T11:23:23.755Z,100575.80
2023-02-22T11:28:35.663Z,100578.60
2023-02-22T11:33:53.294Z,100573.00
2023-02-22T11:39:06.140Z,100577.60
2023-02-22T11:44:29.228Z,100576.20
2023-02-22T11:49:41.227Z,100585.40
2023-02-22T11:55:36.337Z,100590.60
2023-02-22T12:01:07.435Z,100595.80
2023-02-22T12:06:46.559Z,100601.60
2023-02-22T12:12:10.052Z,100603.80
2023-02-22T12:17:43.669Z,100595.40
2023-02-22T12:23:09.987Z,100606.60
2023-02-22T12:28:29.140Z,100604.00
2023-02-22T12:33:54.732Z,100613.20
2023-02-22T12:39:11.009Z,100608.60
2023-02-22T12:44:28.597Z,100613.00
2023-02-22T12:49:45.169Z,100616.80
2023-02-22T12:55:05.694Z,100609.80
2023-02-22T13:00:29.018Z,100602.20
2023-02-22T13:05:43.569Z,100598.80
2023-02-22T13:11:20.506Z,100603.40
2023-02-22T13:16:44.869Z,100605.20
2023-02-22T13:22:04.491Z,100613.20
2023-02-22T13:27:26.371Z,100616.20
2023-02-22T13:32:59.349Z,100617.40
2023-02-22T13:38:45.555Z,100622.60
2023-02-22T13:44:30.142Z,100628.00
2023-02-22T13:50:10.118Z,100625.00
2023-02-22T13:55:30.418Z,100622.00
2023-02-22T14:00:56.151Z,100622.20
2023-02-22T14:06:07.458Z,100624.20
2023-02-22T14:11:57.145Z,100628.80
2023-02-22T14:17:29.143Z,100626.00
2023-02-22T14:22:39.400Z,100635.40
2023-02-22T14:27:49.521Z,100636.20
2023-02-22T14:33:00.908Z,100645.20
2023-02-22T14:38:21.304Z,100639.80
2023-02-22T14:43:31.675Z,100641.00
2023-02-22T14:48:43.259Z,100633.60
2023-02-22T14:53:58.702Z,100633.40
2023-02-22T14:59:21.741Z,100628.60
2023-02-22T15:04:33.647Z,100636.60
2023-02-22T15:09:46.894Z,100637.20
2023-02-22T15:15:22.253Z,100642.80
2023-02-22T15:20:32.632Z,100640.60
2023-02-22T15:25:48.490Z,100639.00
2023-02-22T15:31:36.199Z,100638.20
2023-02-22T15:36:48.020Z,100638.20
2023-02-22T15:42:11.307Z,100646.80
2023-02-22T15:47:25.726Z,100647.00
2023-02-22T15:52:35.980Z,100647.20
2023-02-22T15:57:45.937Z,100643.20
2023-02-22T16:03:00.598Z,100641.80
2023-02-22T16:08:19.485Z,100649.00
2023-02-22T16:13:32.738Z,100647.00
2023-02-22T16:18:43.836Z,100647.20
2023-02-22T16:24:03.963Z,100650.80
2023-02-22T16:29:30.761Z,100656.00
2023-02-22T16:34:41.817Z,100660.60
2023-02-22T16:39:52.822Z,100663.60
2023-02-22T16:45:02.840Z,100670.40
2023-02-22T16:50:14.122Z,100674.40
2023-02-22T16:55:26.230Z,100686.60
2023-02-22T17:00:37.567Z,100684.80
2023-02-22T17:05:48.039Z,100686.40
2023-02-22T17:11:01.857Z,100686.40
2023-02-22T17:16:16.422Z,100685.20
